sensor_id;sensor_type;location;lat;lon;timestamp;P1;durP1;ratioP1;P2;durP2;ratioP2
18286;SDS011;9269;50.838;12.094;2024-01-25T00:01:02;10.03;;;3.80;;
18286;SDS011;9269;50.838;12.094;2024-01-25T00:03:32;11.20;;;3.90;;
18286;SDS011;9269;50.838;12.094;2024-01-25T00:06:01;8.37;;;3.40;;
18286;SDS011;9269;50.838;12.094;2024-01-25T00:08:30;10.33;;;3.43;;
18286;SDS011;9269;50.838;12.094;2024-01-25T00:11:01;9.47;;;3.33;;
18286;SDS011;9269;50.838;12.094;2024-01-25T00:13:30;10.93;;;2.77;;
18286;SDS011;9269;50.838;12.094;2024-01-25T00:15:59;12.57;;;3.80;;
18286;SDS011;9269;50.838;12.094;2024-01-25T00:22:27;13.43;;;3.43;;
18286;SDS011;9269;50.838;12.094;2024-01-25T00:24:57;12.67;;;3.47;;
18286;SDS011;9269;50.838;12.094;2024-01-25T00:27:28;11.67;;;3.40;;
18286;SDS011;9269;50.838;12.094;2024-01-25T00:29:57;10.20;;;3.43;;
18286;SDS011;9269;50.838;12.094;2024-01-25T00:32:26;11.03;;;3.30;;
18286;SDS011;9269;50.838;12.094;2024-01-25T00:35:02;8.83;;;3.47;;
18286;SDS011;9269;50.838;12.094;2024-01-25T00:37:32;10.00;;;3.40;;
18286;SDS011;9269;50.838;12.094;2024-01-25T00:40:02;10.40;;;2.77;;
18286;SDS011;9269;50.838;12.094;2024-01-25T00:42:33;9.00;;;3.37;;
18286;SDS011;9269;50.838;12.094;2024-01-25T00:45:07;11.57;;;3.33;;
18286;SDS011;9269;50.838;12.094;2024-01-25T00:47:37;9.43;;;3.60;;
18286;SDS011;9269;50.838;12.094;2024-01-25T00:50:08;7.37;;;2.67;;
18286;SDS011;9269;50.838;12.094;2024-01-25T00:52:38;12.70;;;3.63;;
18286;SDS011;9269;50.838;12.094;2024-01-25T00:55:08;9.50;;;3.37;;
18286;SDS011;9269;50.838;12.094;2024-01-25T00:57:41;11.43;;;3.30;;
18286;SDS011;9269;50.838;12.094;2024-01-25T01:00:13;10.27;;;3.50;;
18286;SDS011;9269;50.838;12.094;2024-01-25T01:02:43;12.13;;;3.83;;
18286;SDS011;9269;50.838;12.094;2024-01-25T01:05:14;11.60;;;3.97;;
18286;SDS011;9269;50.838;12.094;2024-01-25T01:07:44;12.30;;;3.30;;
18286;SDS011;9269;50.838;12.094;2024-01-25T01:10:13;10.50;;;4.00;;
18286;SDS011;9269;50.838;12.094;2024-01-25T01:12:45;12.07;;;3.60;;
18286;SDS011;9269;50.838;12.094;2024-01-25T01:15:17;14.63;;;4.30;;
18286;SDS011;9269;50.838;12.094;2024-01-25T01:17:47;9.13;;;3.60;;
18286;SDS011;9269;50.838;12.094;2024-01-25T01:20:17;12.23;;;3.00;;
18286;SDS011;9269;50.838;12.094;2024-01-25T01:22:46;11.87;;;3.73;;
18286;SDS011;9269;50.838;12.094;2024-01-25T01:25:15;9.87;;;3.07;;
18286;SDS011;9269;50.838;12.094;2024-01-25T01:27:45;10.40;;;3.70;;
18286;SDS011;9269;50.838;12.094;2024-01-25T01:30:15;10.93;;;4.30;;
18286;SDS011;9269;50.838;12.094;2024-01-25T01:32:44;11.57;;;3.40;;
18286;SDS011;9269;50.838;12.094;2024-01-25T01:35:13;12.83;;;4.07;;
18286;SDS011;9269;50.838;12.094;2024-01-25T01:37:42;13.93;;;3.87;;
18286;SDS011;9269;50.838;12.094;2024-01-25T01:40:11;10.33;;;4.00;;
18286;SDS011;9269;50.838;12.094;2024-01-25T01:42:42;11.57;;;3.40;;
18286;SDS011;9269;50.838;12.094;2024-01-25T01:45:12;12.40;;;4.70;;
18286;SDS011;9269;50.838;12.094;2024-01-25T01:47:41;11.77;;;3.47;;
18286;SDS011;9269;50.838;12.094;2024-01-25T01:50:12;8.33;;;3.27;;
18286;SDS011;9269;50.838;12.094;2024-01-25T01:52:41;9.40;;;3.57;;
18286;SDS011;9269;50.838;12.094;2024-01-25T01:55:11;12.40;;;3.47;;
18286;SDS011;9269;50.838;12.094;2024-01-25T01:57:40;12.50;;;4.30;;
18286;SDS011;9269;50.838;12.094;2024-01-25T02:00:12;12.13;;;4.23;;
18286;SDS011;9269;50.838;12.094;2024-01-25T02:02:46;10.47;;;4.23;;
18286;SDS011;9269;50.838;12.094;2024-01-25T02:05:16;12.23;;;3.73;;
18286;SDS011;9269;50.838;12.094;2024-01-25T02:07:49;13.93;;;3.93;;
18286;SDS011;9269;50.838;12.094;2024-01-25T02:10:19;12.57;;;3.67;;
18286;SDS011;9269;50.838;12.094;2024-01-25T02:12:49;9.20;;;3.43;;
18286;SDS011;9269;50.838;12.094;2024-01-25T02:15:19;13.50;;;3.93;;
18286;SDS011;9269;50.838;12.094;2024-01-25T02:17:48;10.70;;;3.60;;
18286;SDS011;9269;50.838;12.094;2024-01-25T02:20:18;10.70;;;3.90;;
18286;SDS011;9269;50.838;12.094;2024-01-25T02:22:49;10.53;;;3.43;;
18286;SDS011;9269;50.838;12.094;2024-01-25T02:25:19;13.97;;;4.03;;
18286;SDS011;9269;50.838;12.094;2024-01-25T02:27:49;12.10;;;4.30;;
18286;SDS011;9269;50.838;12.094;2024-01-25T02:30:18;9.70;;;3.20;;
18286;SDS011;9269;50.838;12.094;2024-01-25T02:32:47;12.47;;;4.37;;
18286;SDS011;9269;50.838;12.094;2024-01-25T02:35:15;12.40;;;3.87;;
18286;SDS011;9269;50.838;12.094;2024-01-25T02:37:44;12.23;;;4.20;;
18286;SDS011;9269;50.838;12.094;2024-01-25T02:40:15;9.83;;;4.13;;
18286;SDS011;9269;50.838;12.094;2024-01-25T02:42:44;13.47;;;4.00;;
18286;SDS011;9269;50.838;12.094;2024-01-25T02:45:12;11.33;;;3.50;;
18286;SDS011;9269;50.838;12.094;2024-01-25T02:47:41;10.83;;;3.80;;
18286;SDS011;9269;50.838;12.094;2024-01-25T02:50:11;11.90;;;4.00;;
18286;SDS011;9269;50.838;12.094;2024-01-25T02:52:41;9.63;;;3.43;;
18286;SDS011;9269;50.838;12.094;2024-01-25T02:55:11;12.77;;;3.63;;
18286;SDS011;9269;50.838;12.094;2024-01-25T02:57:41;9.13;;;3.37;;
18286;SDS011;9269;50.838;12.094;2024-01-25T03:00:11;13.10;;;3.80;;
18286;SDS011;9269;50.838;12.094;2024-01-25T03:02:40;9.03;;;3.57;;
18286;SDS011;9269;50.838;12.094;2024-01-25T03:05:09;8.93;;;3.13;;
18286;SDS011;9269;50.838;12.094;2024-01-25T03:07:38;11.67;;;3.33;;
18286;SDS011;9269;50.838;12.094;2024-01-25T03:10:10;16.30;;;4.57;;
18286;SDS011;9269;50.838;12.094;2024-01-25T03:12:41;16.73;;;4.77;;
18286;SDS011;9269;50.838;12.094;2024-01-25T03:15:10;11.40;;;4.13;;
18286;SDS011;9269;50.838;12.094;2024-01-25T03:17:40;14.37;;;4.57;;
18286;SDS011;9269;50.838;12.094;2024-01-25T03:20:10;15.17;;;4.47;;
18286;SDS011;9269;50.838;12.094;2024-01-25T03:22:41;12.33;;;4.67;;
18286;SDS011;9269;50.838;12.094;2024-01-25T03:25:10;11.40;;;3.93;;
18286;SDS011;9269;50.838;12.094;2024-01-25T03:27:39;12.87;;;4.03;;
18286;SDS011;9269;50.838;12.094;2024-01-25T03:30:10;16.33;;;4.63;;
18286;SDS011;9269;50.838;12.094;2024-01-25T03:32:41;9.23;;;3.33;;
18286;SDS011;9269;50.838;12.094;2024-01-25T03:35:11;13.23;;;3.90;;
18286;SDS011;9269;50.838;12.094;2024-01-25T03:37:40;14.17;;;4.30;;
18286;SDS011;9269;50.838;12.094;2024-01-25T03:40:09;13.27;;;4.10;;
18286;SDS011;9269;50.838;12.094;2024-01-25T03:42:39;11.60;;;4.50;;
18286;SDS011;9269;50.838;12.094;2024-01-25T03:45:12;14.90;;;4.93;;
18286;SDS011;9269;50.838;12.094;2024-01-25T03:47:42;8.43;;;3.67;;
18286;SDS011;9269;50.838;12.094;2024-01-25T03:50:12;10.47;;;3.90;;
18286;SDS011;9269;50.838;12.094;2024-01-25T03:52:42;13.90;;;4.00;;
18286;SDS011;9269;50.838;12.094;2024-01-25T03:55:11;11.53;;;4.60;;
18286;SDS011;9269;50.838;12.094;2024-01-25T03:57:40;12.83;;;4.20;;
18286;SDS011;9269;50.838;12.094;2024-01-25T04:00:09;12.90;;;4.30;;
18286;SDS011;9269;50.838;12.094;2024-01-25T04:02:41;16.53;;;4.93;;
18286;SDS011;9269;50.838;12.094;2024-01-25T04:05:09;11.20;;;3.97;;
18286;SDS011;9269;50.838;12.094;2024-01-25T04:07:40;9.50;;;3.37;;
18286;SDS011;9269;50.838;12.094;2024-01-25T04:10:09;16.23;;;4.33;;
18286;SDS011;9269;50.838;12.094;2024-01-25T04:12:38;12.77;;;4.73;;
18286;SDS011;9269;50.838;12.094;2024-01-25T04:15:08;14.40;;;4.50;;
18286;SDS011;9269;50.838;12.094;2024-01-25T04:17:38;12.83;;;4.70;;
18286;SDS011;9269;50.838;12.094;2024-01-25T04:20:08;15.27;;;4.77;;
18286;SDS011;9269;50.838;12.094;2024-01-25T04:22:38;15.73;;;4.87;;
18286;SDS011;9269;50.838;12.094;2024-01-25T04:25:07;10.43;;;3.70;;
18286;SDS011;9269;50.838;12.094;2024-01-25T04:27:37;13.30;;;4.13;;
18286;SDS011;9269;50.838;12.094;2024-01-25T04:30:07;12.17;;;4.27;;
18286;SDS011;9269;50.838;12.094;2024-01-25T04:32:36;10.37;;;4.13;;
18286;SDS011;9269;50.838;12.094;2024-01-25T04:35:06;8.93;;;4.10;;
18286;SDS011;9269;50.838;12.094;2024-01-25T04:37:38;9.67;;;3.80;;
18286;SDS011;9269;50.838;12.094;2024-01-25T04:40:07;13.97;;;4.90;;
18286;SDS011;9269;50.838;12.094;2024-01-25T04:42:37;11.30;;;4.17;;
18286;SDS011;9269;50.838;12.094;2024-01-25T04:45:06;12.03;;;4.60;;
18286;SDS011;9269;50.838;12.094;2024-01-25T04:47:37;9.97;;;3.93;;
18286;SDS011;9269;50.838;12.094;2024-01-25T04:50:06;8.27;;;3.13;;
18286;SDS011;9269;50.838;12.094;2024-01-25T04:52:38;12.90;;;4.30;;
18286;SDS011;9269;50.838;12.094;2024-01-25T04:55:07;12.40;;;3.77;;
18286;SDS011;9269;50.838;12.094;2024-01-25T04:57:36;13.13;;;3.77;;
18286;SDS011;9269;50.838;12.094;2024-01-25T05:00:06;12.70;;;4.03;;
18286;SDS011;9269;50.838;12.094;2024-01-25T05:02:36;12.00;;;3.97;;
18286;SDS011;9269;50.838;12.094;2024-01-25T05:05:04;11.00;;;3.40;;
18286;SDS011;9269;50.838;12.094;2024-01-25T05:07:33;11.03;;;3.80;;
18286;SDS011;9269;50.838;12.094;2024-01-25T05:10:04;13.13;;;3.77;;
18286;SDS011;9269;50.838;12.094;2024-01-25T05:12:32;13.47;;;4.30;;
18286;SDS011;9269;50.838;12.094;2024-01-25T05:15:01;11.30;;;3.60;;
18286;SDS011;9269;50.838;12.094;2024-01-25T05:17:30;14.37;;;4.10;;
18286;SDS011;9269;50.838;12.094;2024-01-25T05:19:59;13.00;;;3.57;;
18286;SDS011;9269;50.838;12.094;2024-01-25T05:22:30;16.30;;;4.27;;
18286;SDS011;9269;50.838;12.094;2024-01-25T05:24:59;11.70;;;3.77;;
18286;SDS011;9269;50.838;12.094;2024-01-25T05:27:30;11.47;;;3.67;;
18286;SDS011;9269;50.838;12.094;2024-01-25T05:29:58;12.67;;;4.07;;
18286;SDS011;9269;50.838;12.094;2024-01-25T05:32:28;9.37;;;3.40;;
18286;SDS011;9269;50.838;12.094;2024-01-25T05:34:57;8.20;;;3.60;;
18286;SDS011;9269;50.838;12.094;2024-01-25T05:37:27;15.07;;;4.10;;
18286;SDS011;9269;50.838;12.094;2024-01-25T05:39:56;11.57;;;3.40;;
18286;SDS011;9269;50.838;12.094;2024-01-25T05:42:25;11.17;;;3.93;;
18286;SDS011;9269;50.838;12.094;2024-01-25T05:44:55;9.73;;;3.60;;
18286;SDS011;9269;50.838;12.094;2024-01-25T05:47:24;11.03;;;3.30;;
18286;SDS011;9269;50.838;12.094;2024-01-25T05:49:53;10.90;;;3.47;;
18286;SDS011;9269;50.838;12.094;2024-01-25T05:52:23;14.60;;;4.27;;
18286;SDS011;9269;50.838;12.094;2024-01-25T05:54:52;10.97;;;3.10;;
18286;SDS011;9269;50.838;12.094;2024-01-25T05:57:21;13.77;;;3.70;;
18286;SDS011;9269;50.838;12.094;2024-01-25T05:59:53;13.70;;;3.63;;
18286;SDS011;9269;50.838;12.094;2024-01-25T06:02:25;10.90;;;3.30;;
18286;SDS011;9269;50.838;12.094;2024-01-25T06:04:55;10.30;;;3.27;;
18286;SDS011;9269;50.838;12.094;2024-01-25T06:07:26;11.97;;;3.57;;
18286;SDS011;9269;50.838;12.094;2024-01-25T06:09:55;9.67;;;2.80;;
18286;SDS011;9269;50.838;12.094;2024-01-25T06:12:25;9.10;;;2.90;;
18286;SDS011;9269;50.838;12.094;2024-01-25T06:14:56;9.80;;;3.50;;
18286;SDS011;9269;50.838;12.094;2024-01-25T06:17:25;11.20;;;3.43;;
18286;SDS011;9269;50.838;12.094;2024-01-25T06:19:54;6.43;;;3.20;;
18286;SDS011;9269;50.838;12.094;2024-01-25T06:22:23;8.00;;;3.17;;
18286;SDS011;9269;50.838;12.094;2024-01-25T06:24:51;9.73;;;3.20;;
18286;SDS011;9269;50.838;12.094;2024-01-25T06:27:20;8.40;;;3.00;;
18286;SDS011;9269;50.838;12.094;2024-01-25T06:29:50;7.83;;;3.03;;
18286;SDS011;9269;50.838;12.094;2024-01-25T06:32:20;9.43;;;3.30;;
18286;SDS011;9269;50.838;12.094;2024-01-25T06:34:53;12.60;;;3.30;;
18286;SDS011;9269;50.838;12.094;2024-01-25T06:37:22;9.57;;;3.27;;
18286;SDS011;9269;50.838;12.094;2024-01-25T06:39:52;12.17;;;3.17;;
18286;SDS011;9269;50.838;12.094;2024-01-25T06:42:21;8.97;;;3.57;;
18286;SDS011;9269;50.838;12.094;2024-01-25T06:44:49;12.23;;;3.47;;
18286;SDS011;9269;50.838;12.094;2024-01-25T06:47:20;11.13;;;3.17;;
18286;SDS011;9269;50.838;12.094;2024-01-25T06:49:50;9.87;;;2.57;;
18286;SDS011;9269;50.838;12.094;2024-01-25T06:52:20;11.20;;;2.97;;
18286;SDS011;9269;50.838;12.094;2024-01-25T06:54:49;5.40;;;2.57;;
18286;SDS011;9269;50.838;12.094;2024-01-25T06:57:18;9.33;;;2.90;;
18286;SDS011;9269;50.838;12.094;2024-01-25T06:59:47;8.13;;;3.10;;
18286;SDS011;9269;50.838;12.094;2024-01-25T07:02:16;7.67;;;2.90;;
18286;SDS011;9269;50.838;12.094;2024-01-25T07:04:47;10.33;;;3.50;;
18286;SDS011;9269;50.838;12.094;2024-01-25T07:07:16;9.97;;;3.10;;
18286;SDS011;9269;50.838;12.094;2024-01-25T07:09:45;6.87;;;2.50;;
18286;SDS011;9269;50.838;12.094;2024-01-25T07:12:14;6.07;;;2.60;;
18286;SDS011;9269;50.838;12.094;2024-01-25T07:14:43;10.23;;;2.57;;
18286;SDS011;9269;50.838;12.094;2024-01-25T07:17:12;6.10;;;2.37;;
18286;SDS011;9269;50.838;12.094;2024-01-25T07:19:41;8.03;;;2.97;;
18286;SDS011;9269;50.838;12.094;2024-01-25T07:22:11;9.30;;;3.13;;
18286;SDS011;9269;50.838;12.094;2024-01-25T07:24:42;9.27;;;2.30;;
18286;SDS011;9269;50.838;12.094;2024-01-25T07:27:12;5.67;;;2.57;;
18286;SDS011;9269;50.838;12.094;2024-01-25T07:29:43;8.10;;;2.30;;
18286;SDS011;9269;50.838;12.094;2024-01-25T07:32:13;6.73;;;2.47;;
18286;SDS011;9269;50.838;12.094;2024-01-25T07:34:42;7.13;;;2.43;;
18286;SDS011;9269;50.838;12.094;2024-01-25T07:37:13;9.57;;;3.70;;
18286;SDS011;9269;50.838;12.094;2024-01-25T07:39:43;12.00;;;2.97;;
18286;SDS011;9269;50.838;12.094;2024-01-25T07:42:16;9.10;;;3.70;;
18286;SDS011;9269;50.838;12.094;2024-01-25T07:44:45;8.83;;;3.23;;
18286;SDS011;9269;50.838;12.094;2024-01-25T07:47:14;10.13;;;3.77;;
18286;SDS011;9269;50.838;12.094;2024-01-25T07:49:43;9.17;;;2.70;;
18286;SDS011;9269;50.838;12.094;2024-01-25T07:52:13;10.90;;;3.10;;
18286;SDS011;9269;50.838;12.094;2024-01-25T07:54:43;6.13;;;2.60;;
18286;SDS011;9269;50.838;12.094;2024-01-25T07:57:12;7.03;;;2.50;;
18286;SDS011;9269;50.838;12.094;2024-01-25T07:59:40;7.27;;;2.33;;
18286;SDS011;9269;50.838;12.094;2024-01-25T08:02:09;8.30;;;2.70;;
18286;SDS011;9269;50.838;12.094;2024-01-25T09:01:13;5.73;;;2.40;;
18286;SDS011;9269;50.838;12.094;2024-01-25T09:03:42;6.30;;;2.47;;
18286;SDS011;9269;50.838;12.094;2024-01-25T09:06:11;6.20;;;2.53;;
18286;SDS011;9269;50.838;12.094;2024-01-25T09:08:42;6.40;;;2.60;;
18286;SDS011;9269;50.838;12.094;2024-01-25T09:11:11;8.17;;;2.67;;
18286;SDS011;9269;50.838;12.094;2024-01-25T09:13:40;6.90;;;2.57;;
18286;SDS011;9269;50.838;12.094;2024-01-25T09:16:18;4.17;;;2.27;;
18286;SDS011;9269;50.838;12.094;2024-01-25T09:18:47;7.77;;;2.87;;
18286;SDS011;9269;50.838;12.094;2024-01-25T09:21:17;7.40;;;2.53;;
18286;SDS011;9269;50.838;12.094;2024-01-25T09:23:46;6.63;;;2.57;;
18286;SDS011;9269;50.838;12.094;2024-01-25T09:26:15;6.60;;;2.40;;
18286;SDS011;9269;50.838;12.094;2024-01-25T09:28:44;6.73;;;2.40;;
18286;SDS011;9269;50.838;12.094;2024-01-25T09:31:13;8.27;;;2.70;;
18286;SDS011;9269;50.838;12.094;2024-01-25T09:33:44;7.40;;;2.13;;
18286;SDS011;9269;50.838;12.094;2024-01-25T09:36:12;7.77;;;2.70;;
18286;SDS011;9269;50.838;12.094;2024-01-25T09:38:42;7.73;;;2.40;;
18286;SDS011;9269;50.838;12.094;2024-01-25T09:41:11;7.40;;;2.40;;
18286;SDS011;9269;50.838;12.094;2024-01-25T09:43:40;7.70;;;2.37;;
18286;SDS011;9269;50.838;12.094;2024-01-25T09:46:11;5.90;;;1.83;;
18286;SDS011;9269;50.838;12.094;2024-01-25T09:48:44;5.47;;;2.30;;
18286;SDS011;9269;50.838;12.094;2024-01-25T09:51:15;8.57;;;2.37;;
18286;SDS011;9269;50.838;12.094;2024-01-25T09:53:44;6.97;;;2.40;;
18286;SDS011;9269;50.838;12.094;2024-01-25T09:56:19;7.20;;;2.37;;
18286;SDS011;9269;50.838;12.094;2024-01-25T09:58:50;6.47;;;2.23;;
18286;SDS011;9269;50.838;12.094;2024-01-25T10:01:20;5.03;;;2.13;;
18286;SDS011;9269;50.838;12.094;2024-01-25T10:03:50;6.17;;;2.40;;
18286;SDS011;9269;50.838;12.094;2024-01-25T10:06:19;3.93;;;2.13;;
18286;SDS011;9269;50.838;12.094;2024-01-25T10:08:48;6.53;;;2.13;;
18286;SDS011;9269;50.838;12.094;2024-01-25T10:11:17;6.03;;;2.10;;
18286;SDS011;9269;50.838;12.094;2024-01-25T10:13:46;5.17;;;2.10;;
18286;SDS011;9269;50.838;12.094;2024-01-25T10:16:18;8.80;;;2.30;;
18286;SDS011;9269;50.838;12.094;2024-01-25T10:18:47;6.03;;;2.03;;
18286;SDS011;9269;50.838;12.094;2024-01-25T10:21:19;7.60;;;2.40;;
18286;SDS011;9269;50.838;12.094;2024-01-25T10:23:49;6.17;;;1.80;;
18286;SDS011;9269;50.838;12.094;2024-01-25T10:26:18;6.63;;;1.93;;
18286;SDS011;9269;50.838;12.094;2024-01-25T10:28:50;7.57;;;1.93;;
18286;SDS011;9269;50.838;12.094;2024-01-25T10:31:34;7.00;;;2.30;;
18286;SDS011;9269;50.838;12.094;2024-01-25T10:34:08;9.07;;;2.33;;
18286;SDS011;9269;50.838;12.094;2024-01-25T10:36:41;7.83;;;1.83;;
18286;SDS011;9269;50.838;12.094;2024-01-25T10:39:11;6.00;;;2.20;;
18286;SDS011;9269;50.838;12.094;2024-01-25T10:41:41;7.30;;;2.67;;
18286;SDS011;9269;50.838;12.094;2024-01-25T10:44:33;5.37;;;2.30;;
18286;SDS011;9269;50.838;12.094;2024-01-25T10:47:01;9.27;;;2.47;;
18286;SDS011;9269;50.838;12.094;2024-01-25T10:49:32;8.30;;;2.40;;
18286;SDS011;9269;50.838;12.094;2024-01-25T10:52:01;7.73;;;1.87;;
18286;SDS011;9269;50.838;12.094;2024-01-25T10:54:32;4.30;;;2.00;;
18286;SDS011;9269;50.838;12.094;2024-01-25T10:57:01;6.60;;;2.53;;
18286;SDS011;9269;50.838;12.094;2024-01-25T10:59:32;9.47;;;2.50;;
18286;SDS011;9269;50.838;12.094;2024-01-25T11:02:01;7.13;;;2.10;;
18286;SDS011;9269;50.838;12.094;2024-01-25T11:04:31;7.20;;;2.23;;
18286;SDS011;9269;50.838;12.094;2024-01-25T11:07:04;9.13;;;2.73;;
18286;SDS011;9269;50.838;12.094;2024-01-25T11:09:34;4.10;;;1.87;;
18286;SDS011;9269;50.838;12.094;2024-01-25T11:12:10;5.73;;;2.30;;
18286;SDS011;9269;50.838;12.094;2024-01-25T11:14:40;7.57;;;2.10;;
18286;SDS011;9269;50.838;12.094;2024-01-25T11:17:15;5.60;;;2.37;;
18286;SDS011;9269;50.838;12.094;2024-01-25T11:19:49;6.43;;;2.13;;
18286;SDS011;9269;50.838;12.094;2024-01-25T11:22:19;4.43;;;1.67;;
18286;SDS011;9269;50.838;12.094;2024-01-25T11:24:47;6.57;;;2.33;;
18286;SDS011;9269;50.838;12.094;2024-01-25T11:27:17;6.17;;;1.73;;
18286;SDS011;9269;50.838;12.094;2024-01-25T11:29:46;4.40;;;1.80;;
18286;SDS011;9269;50.838;12.094;2024-01-25T11:32:15;5.67;;;2.43;;
18286;SDS011;9269;50.838;12.094;2024-01-25T11:34:44;5.73;;;2.10;;
18286;SDS011;9269;50.838;12.094;2024-01-25T11:37:14;6.80;;;1.93;;
18286;SDS011;9269;50.838;12.094;2024-01-25T11:39:46;4.57;;;2.13;;
18286;SDS011;9269;50.838;12.094;2024-01-25T11:42:23;6.20;;;1.60;;
18286;SDS011;9269;50.838;12.094;2024-01-25T11:44:51;6.57;;;2.20;;
18286;SDS011;9269;50.838;12.094;2024-01-25T11:47:22;5.93;;;2.30;;
18286;SDS011;9269;50.838;12.094;2024-01-25T11:49:51;9.13;;;2.10;;
18286;SDS011;9269;50.838;12.094;2024-01-25T11:52:21;5.60;;;2.00;;
18286;SDS011;9269;50.838;12.094;2024-01-25T11:54:49;8.27;;;2.40;;
18286;SDS011;9269;50.838;12.094;2024-01-25T11:57:18;8.73;;;2.53;;
18286;SDS011;9269;50.838;12.094;2024-01-25T11:59:47;7.03;;;2.67;;
18286;SDS011;9269;50.838;12.094;2024-01-25T12:02:17;6.10;;;2.50;;
18286;SDS011;9269;50.838;12.094;2024-01-25T12:04:47;6.67;;;1.90;;
18286;SDS011;9269;50.838;12.094;2024-01-25T12:07:16;7.10;;;2.20;;
18286;SDS011;9269;50.838;12.094;2024-01-25T12:09:56;8.27;;;2.77;;
18286;SDS011;9269;50.838;12.094;2024-01-25T12:12:26;6.40;;;2.50;;
18286;SDS011;9269;50.838;12.094;2024-01-25T12:14:58;8.57;;;2.40;;
18286;SDS011;9269;50.838;12.094;2024-01-25T12:17:27;3.97;;;1.90;;
18286;SDS011;9269;50.838;12.094;2024-01-25T12:19:56;7.93;;;2.27;;
18286;SDS011;9269;50.838;12.094;2024-01-25T12:22:26;6.27;;;2.13;;
18286;SDS011;9269;50.838;12.094;2024-01-25T12:24:59;4.00;;;2.83;;
18286;SDS011;9269;50.838;12.094;2024-01-25T12:27:28;7.33;;;2.13;;
18286;SDS011;9269;50.838;12.094;2024-01-25T12:29:59;6.13;;;2.27;;
18286;SDS011;9269;50.838;12.094;2024-01-25T12:32:27;6.17;;;2.30;;
18286;SDS011;9269;50.838;12.094;2024-01-25T12:34:57;6.53;;;2.47;;
18286;SDS011;9269;50.838;12.094;2024-01-25T12:37:27;5.43;;;2.27;;
18286;SDS011;9269;50.838;12.094;2024-01-25T12:39:58;9.67;;;2.43;;
18286;SDS011;9269;50.838;12.094;2024-01-25T12:42:30;7.27;;;2.27;;
18286;SDS011;9269;50.838;12.094;2024-01-25T12:44:58;9.63;;;2.97;;
18286;SDS011;9269;50.838;12.094;2024-01-25T12:47:27;6.80;;;2.33;;
18286;SDS011;9269;50.838;12.094;2024-01-25T12:49:57;9.33;;;2.60;;
18286;SDS011;9269;50.838;12.094;2024-01-25T12:52:29;8.93;;;2.37;;
18286;SDS011;9269;50.838;12.094;2024-01-25T12:54:59;4.57;;;2.43;;
18286;SDS011;9269;50.838;12.094;2024-01-25T12:57:31;6.10;;;2.37;;
18286;SDS011;9269;50.838;12.094;2024-01-25T13:00:01;5.70;;;2.13;;
18286;SDS011;9269;50.838;12.094;2024-01-25T13:02:31;6.13;;;2.13;;
18286;SDS011;9269;50.838;12.094;2024-01-25T13:05:00;8.43;;;2.90;;
18286;SDS011;9269;50.838;12.094;2024-01-25T13:07:30;6.40;;;2.50;;
18286;SDS011;9269;50.838;12.094;2024-01-25T13:10:00;6.57;;;2.13;;
18286;SDS011;9269;50.838;12.094;2024-01-25T13:12:29;7.83;;;2.57;;
18286;SDS011;9269;50.838;12.094;2024-01-25T13:14:58;4.53;;;2.20;;
18286;SDS011;9269;50.838;12.094;2024-01-25T13:17:27;5.40;;;2.23;;
18286;SDS011;9269;50.838;12.094;2024-01-25T13:19:57;6.70;;;2.40;;
18286;SDS011;9269;50.838;12.094;2024-01-25T13:22:25;4.73;;;2.20;;
18286;SDS011;9269;50.838;12.094;2024-01-25T13:24:56;6.13;;;2.20;;
18286;SDS011;9269;50.838;12.094;2024-01-25T13:27:26;8.70;;;2.17;;
18286;SDS011;9269;50.838;12.094;2024-01-25T13:29:55;7.87;;;2.47;;
18286;SDS011;9269;50.838;12.094;2024-01-25T13:32:24;6.73;;;2.00;;
18286;SDS011;9269;50.838;12.094;2024-01-25T13:34:52;5.70;;;2.10;;
18286;SDS011;9269;50.838;12.094;2024-01-25T13:37:22;7.07;;;2.33;;
18286;SDS011;9269;50.838;12.094;2024-01-25T13:39:51;7.07;;;2.23;;
18286;SDS011;9269;50.838;12.094;2024-01-25T13:42:19;6.63;;;2.53;;
18286;SDS011;9269;50.838;12.094;2024-01-25T13:44:49;8.77;;;2.50;;
18286;SDS011;9269;50.838;12.094;2024-01-25T13:47:18;8.10;;;2.27;;
18286;SDS011;9269;50.838;12.094;2024-01-25T13:49:47;7.20;;;2.33;;
18286;SDS011;9269;50.838;12.094;2024-01-25T13:52:17;6.33;;;2.10;;
18286;SDS011;9269;50.838;12.094;2024-01-25T13:54:47;5.60;;;2.70;;
18286;SDS011;9269;50.838;12.094;2024-01-25T13:57:16;6.70;;;2.47;;
18286;SDS011;9269;50.838;12.094;2024-01-25T13:59:47;6.43;;;2.50;;
18286;SDS011;9269;50.838;12.094;2024-01-25T14:02:17;7.77;;;2.97;;
18286;SDS011;9269;50.838;12.094;2024-01-25T14:04:45;8.40;;;2.90;;
18286;SDS011;9269;50.838;12.094;2024-01-25T14:07:15;5.07;;;2.40;;
18286;SDS011;9269;50.838;12.094;2024-01-25T14:09:44;8.47;;;3.00;;
18286;SDS011;9269;50.838;12.094;2024-01-25T14:12:16;7.37;;;2.93;;
18286;SDS011;9269;50.838;12.094;2024-01-25T14:14:45;8.03;;;2.53;;
18286;SDS011;9269;50.838;12.094;2024-01-25T14:17:16;5.97;;;2.20;;
18286;SDS011;9269;50.838;12.094;2024-01-25T14:19:44;9.90;;;2.90;;
18286;SDS011;9269;50.838;12.094;2024-01-25T14:22:13;5.77;;;1.87;;
18286;SDS011;9269;50.838;12.094;2024-01-25T14:24:57;9.57;;;2.57;;
18286;SDS011;9269;50.838;12.094;2024-01-25T14:27:26;6.33;;;2.37;;
18286;SDS011;9269;50.838;12.094;2024-01-25T14:29:54;7.03;;;2.40;;
18286;SDS011;9269;50.838;12.094;2024-01-25T14:32:25;8.50;;;2.03;;
18286;SDS011;9269;50.838;12.094;2024-01-25T14:34:54;6.70;;;2.80;;
18286;SDS011;9269;50.838;12.094;2024-01-25T14:37:22;8.00;;;2.30;;
18286;SDS011;9269;50.838;12.094;2024-01-25T14:39:51;7.37;;;2.67;;
18286;SDS011;9269;50.838;12.094;2024-01-25T14:42:39;7.57;;;2.87;;
18286;SDS011;9269;50.838;12.094;2024-01-25T14:45:08;7.37;;;2.43;;
18286;SDS011;9269;50.838;12.094;2024-01-25T14:47:38;8.50;;;3.03;;
18286;SDS011;9269;50.838;12.094;2024-01-25T14:50:07;5.63;;;2.23;;
18286;SDS011;9269;50.838;12.094;2024-01-25T14:52:35;8.07;;;2.60;;
18286;SDS011;9269;50.838;12.094;2024-01-25T14:55:05;6.30;;;2.23;;
18286;SDS011;9269;50.838;12.094;2024-01-25T14:57:34;6.37;;;2.60;;
18286;SDS011;9269;50.838;12.094;2024-01-25T15:00:03;7.53;;;3.00;;
18286;SDS011;9269;50.838;12.094;2024-01-25T15:06:34;5.07;;;2.30;;
18286;SDS011;9269;50.838;12.094;2024-01-25T15:09:02;9.30;;;3.30;;
18286;SDS011;9269;50.838;12.094;2024-01-25T15:11:31;6.87;;;2.73;;
18286;SDS011;9269;50.838;12.094;2024-01-25T15:14:00;10.30;;;3.53;;
18286;SDS011;9269;50.838;12.094;2024-01-25T15:16:28;6.07;;;3.47;;
18286;SDS011;9269;50.838;12.094;2024-01-25T15:18:57;7.00;;;2.53;;
18286;SDS011;9269;50.838;12.094;2024-01-25T15:21:26;6.37;;;3.20;;
18286;SDS011;9269;50.838;12.094;2024-01-25T15:23:56;5.80;;;3.10;;
18286;SDS011;9269;50.838;12.094;2024-01-25T15:26:25;5.60;;;2.93;;
18286;SDS011;9269;50.838;12.094;2024-01-25T15:28:54;7.40;;;2.73;;
18286;SDS011;9269;50.838;12.094;2024-01-25T15:31:22;4.07;;;2.30;;
18286;SDS011;9269;50.838;12.094;2024-01-25T15:33:52;6.97;;;2.70;;
18286;SDS011;9269;50.838;12.094;2024-01-25T15:36:22;5.30;;;2.70;;
18286;SDS011;9269;50.838;12.094;2024-01-25T15:38:53;6.73;;;2.83;;
18286;SDS011;9269;50.838;12.094;2024-01-25T15:41:25;8.10;;;2.67;;
18286;SDS011;9269;50.838;12.094;2024-01-25T15:43:57;4.67;;;2.50;;
18286;SDS011;9269;50.838;12.094;2024-01-25T15:46:26;9.23;;;3.13;;
18286;SDS011;9269;50.838;12.094;2024-01-25T15:48:54;10.47;;;2.60;;
18286;SDS011;9269;50.838;12.094;2024-01-25T15:51:23;5.27;;;2.23;;
18286;SDS011;9269;50.838;12.094;2024-01-25T15:53:52;5.67;;;2.40;;
18286;SDS011;9269;50.838;12.094;2024-01-25T15:56:21;6.63;;;2.70;;
18286;SDS011;9269;50.838;12.094;2024-01-25T15:58:51;6.27;;;2.93;;
18286;SDS011;9269;50.838;12.094;2024-01-25T16:01:20;7.10;;;2.73;;
18286;SDS011;9269;50.838;12.094;2024-01-25T16:03:49;5.70;;;2.50;;